Time;durP1;ratioP1;P1;durP2;ratioP2;P2;SDS_P1;SDS_P2;PMS_P1;PMS_P2;Temp;Humidity;BMP_temperature;BMP_pressure;BME280_temperature;BME280_humidity;BME280_pressure;Samples;Min_cycle;Max_cycle;Signal;HPM_P1;HPM_P2
2022/11/15 00:01:49;;;;;;;8.02;3.92;;;;;;;6.43;95.27;100757.78;5084622;28;20032;-84
2022/11/15 00:04:32;;;;;;;9.50;4.13;;;;;;;6.45;96.23;100756.94;5093161;28;20096;-84
2022/11/15 00:06:57;;;;;;;9.07;3.90;;;;;;;6.47;96.56;100749.19;5093201;28;20020;-84
2022/11/15 00:09:22;;;;;;;9.48;4.13;;;;;;;6.51;96.79;100757.78;5092727;28;20110;-84
2022/11/15 00:11:47;;;;;;;7.85;3.78;;;;;;;6.54;96.99;100753.47;5092778;28;20081;-85
2022/11/15 00:14:13;;;;;;;7.23;3.53;;;;;;;6.54;96.84;100750.91;5093209;28;20024;-85
2022/11/15 00:16:38;;;;;;;8.70;4.03;;;;;;;6.59;97.26;100753.47;5092692;28;20031;-86
2022/11/15 00:19:03;;;;;;;8.30;4.03;;;;;;;6.63;97.60;100755.19;5092977;28;20490;-85
2022/11/15 00:21:29;;;;;;;8.40;4.17;;;;;;;6.67;98.30;100758.63;5098425;22;20507;-85
2022/11/15 00:23:54;;;;;;;8.05;4.10;;;;;;;6.70;97.83;100756.06;5092308;28;20435;-85
2022/11/15 00:26:19;;;;;;;8.30;4.25;;;;;;;6.72;98.07;100752.59;5092751;28;20078;-85
2022/11/15 00:28:45;;;;;;;6.80;3.80;;;;;;;6.75;97.31;100747.47;5093315;28;20080;-85
2022/11/15 00:31:15;;;;;;;5.60;3.20;;;;;;;6.78;97.08;100755.19;5090872;28;20512;-85
2022/11/15 00:33:43;;;;;;;5.80;3.35;;;;;;;6.82;97.44;100750.00;5092820;28;20028;-85
2022/11/15 00:36:09;;;;;;;5.70;3.17;;;;;;;6.84;97.46;100748.28;5092196;28;20020;-84
2022/11/15 00:38:36;;;;;;;4.45;2.97;;;;;;;6.87;97.17;100750.88;5093296;28;20020;-85
2022/11/15 00:41:04;;;;;;;5.10;2.97;;;;;;;6.90;98.31;100749.16;5147163;22;20024;-85
2022/11/15 00:43:29;;;;;;;8.50;4.32;;;;;;;6.93;98.96;100745.69;5092763;28;20028;-85
2022/11/15 00:45:55;;;;;;;8.23;3.90;;;;;;;6.97;98.42;100751.75;5092782;28;20187;-84
2022/11/15 00:48:20;;;;;;;7.57;3.90;;;;;;;7.02;98.44;100737.09;5093060;28;20507;-85
2022/11/15 00:50:47;;;;;;;10.70;5.25;;;;;;;7.06;98.68;100734.50;5092314;28;20027;-85
2022/11/15 00:53:12;;;;;;;9.82;4.80;;;;;;;7.09;97.88;100733.66;5074377;28;20027;-85
2022/11/15 00:55:37;;;;;;;9.00;4.43;;;;;;;7.13;97.30;100737.06;5093124;28;20020;-85
2022/11/15 00:58:03;;;;;;;7.10;3.83;;;;;;;7.17;98.40;100725.84;5092237;28;20024;-84
2022/11/15 01:00:28;;;;;;;6.35;3.40;;;;;;;7.20;98.37;100731.91;5092213;28;20020;-84
2022/11/15 01:02:54;;;;;;;6.03;3.30;;;;;;;7.22;98.11;100724.13;5092876;28;20028;-85
2022/11/15 01:05:19;;;;;;;6.05;3.40;;;;;;;7.24;97.47;100728.41;5091730;28;20024;-85
2022/11/15 01:07:45;;;;;;;6.93;3.72;;;;;;;7.29;98.93;100724.97;5092710;28;20245;-84
2022/11/15 01:10:10;;;;;;;7.18;3.97;;;;;;;7.33;98.77;100727.53;5092695;28;20375;-84
2022/11/15 01:12:36;;;;;;;8.82;4.70;;;;;;;7.38;100.00;100724.94;5092590;28;20024;-85
2022/11/15 01:15:02;;;;;;;8.47;4.40;;;;;;;7.43;99.30;100725.75;5092978;28;20329;-84
2022/11/15 01:17:27;;;;;;;10.02;5.03;;;;;;;7.47;100.00;100724.91;5093160;28;20528;-85
2022/11/15 01:19:53;;;;;;;10.97;5.30;;;;;;;7.52;100.00;100719.72;5092068;28;20099;-84
2022/11/15 01:22:18;;;;;;;12.98;6.20;;;;;;;7.56;100.00;100709.34;5092107;28;20038;-85
2022/11/15 01:24:43;;;;;;;11.80;6.00;;;;;;;7.60;100.00;100709.34;5092353;28;20025;-84
2022/11/15 01:27:09;;;;;;;9.47;5.17;;;;;;;7.67;100.00;100714.47;5092155;28;20069;-84
2022/11/15 01:29:34;;;;;;;8.77;4.68;;;;;;;7.69;100.00;100705.00;5092381;28;20060;-85
2022/11/15 01:32:00;;;;;;;8.67;4.50;;;;;;;7.72;100.00;100709.28;5092263;28;20069;-84
2022/11/15 01:34:25;;;;;;;8.45;4.45;;;;;;;7.73;100.00;100703.25;5091854;28;20495;-85
2022/11/15 01:36:51;;;;;;;9.07;4.77;;;;;;;7.76;100.00;100699.78;5092400;28;20118;-84
2022/11/15 01:39:16;;;;;;;7.05;4.22;;;;;;;7.76;100.00;100700.66;5092010;28;20043;-85
2022/11/15 01:41:42;;;;;;;6.95;3.70;;;;;;;7.80;100.00;100697.16;5093784;28;20070;-85
2022/11/15 01:44:39;;;;;;;9.17;4.93;;;;;;;7.83;100.00;100707.50;5095776;28;20161;-84
2022/11/15 01:47:13;;;;;;;8.73;4.82;;;;;;;7.87;100.00;100700.56;5095265;28;20073;-84
2022/11/15 01:49:44;;;;;;;8.98;4.68;;;;;;;7.89;100.00;100698.84;5096002;28;20028;-84
2022/11/15 01:52:14;;;;;;;8.73;4.15;;;;;;;7.92;100.00;100700.53;5096044;28;20024;-85
2022/11/15 01:54:40;;;;;;;7.78;4.13;;;;;;;7.94;100.00;100703.97;5095532;28;20020;-87
2022/11/15 01:57:09;;;;;;;7.27;4.13;;;;;;;8.00;100.00;100698.75;5095218;28;20107;-84
2022/11/15 01:59:36;;;;;;;7.20;3.95;;;;;;;8.02;100.00;100704.78;5096025;28;20036;-85
2022/11/15 02:02:02;;;;;;;8.65;4.50;;;;;;;8.06;100.00;100693.56;5094933;28;20149;-84
2022/11/15 02:04:31;;;;;;;8.67;4.50;;;;;;;8.11;100.00;100698.69;5095643;28;20136;-84
2022/11/15 02:06:56;;;;;;;8.10;4.40;;;;;;;8.14;100.00;100696.09;5143632;22;20555;-84
2022/11/15 02:09:22;;;;;;;7.50;4.40;;;;;;;8.16;100.00;100691.78;5074698;28;20052;-84
2022/11/15 02:11:49;;;;;;;8.88;4.20;;;;;;;8.20;100.00;100685.69;5075135;28;20025;-84
2022/11/15 02:14:17;;;;;;;7.38;4.00;;;;;;;8.22;100.00;100686.53;5074909;28;20025;-84
2022/11/15 02:17:04;;;;;;;5.70;3.60;;;;;;;8.25;100.00;100680.47;5074997;28;20495;-85
2022/11/15 02:19:41;;;;;;;;;;;;;;;8.30;100.00;100678.72;5075862;28;20028;-84
2022/11/15 02:22:43;;;;;;;9.15;4.60;;;;;;;8.34;100.00;100678.69;5074424;28;19920;-85
2022/11/15 02:25:50;;;;;;;8.23;4.38;;;;;;;8.38;100.00;100673.50;5074815;28;20078;-84
2022/11/15 02:28:36;;;;;;;7.95;4.25;;;;;;;8.42;100.00;100673.44;5032656;28;20029;-84
2022/11/15 02:31:16;;;;;;;7.03;4.15;;;;;;;8.45;100.00;100675.97;5071773;28;20036;-84
2022/11/15 02:34:04;;;;;;;9.75;4.95;;;;;;;8.49;100.00;100671.69;5074928;28;20027;-85
2022/11/15 02:36:57;;;;;;;8.90;4.88;;;;;;;8.52;100.00;100673.38;5074520;28;20029;-84
2022/11/15 02:39:56;;;;;;;8.85;4.60;;;;;;;8.56;100.00;100672.47;5074612;28;20064;-84
2022/11/15 02:45:26;;;;;;;9.23;5.25;;;;;;;8.66;100.00;100663.78;5074771;28;20446;-84
2022/11/15 02:47:56;;;;;;;10.45;5.00;;;;;;;8.68;100.00;100659.41;5074742;28;20407;-84
2022/11/15 02:50:27;;;;;;;12.73;6.28;;;;;;;8.75;100.00;100663.66;5088943;22;20438;-84
2022/11/15 02:52:53;;;;;;;10.07;5.53;;;;;;;8.79;100.00;100656.72;5093837;28;20020;-85
2022/11/15 02:55:35;;;;;;;12.43;5.90;;;;;;;8.81;100.00;100660.16;5094463;28;20035;-84
2022/11/15 02:58:32;;;;;;;11.65;5.68;;;;;;;8.81;100.00;100658.41;5073892;28;20028;-85
2022/11/15 03:01:23;;;;;;;10.10;5.82;;;;;;;8.86;100.00;100652.34;5065838;28;20036;-84
2022/11/15 03:04:16;;;;;;;9.95;5.00;;;;;;;8.88;100.00;100651.44;5082756;28;20032;-84
2022/11/15 03:06:52;;;;;;;9.25;4.75;;;;;;;8.89;100.00;100642.81;5094994;28;20114;-84
2022/11/15 03:09:33;;;;;;;7.70;4.38;;;;;;;8.91;100.00;100637.59;5094882;28;20016;-85
2022/11/15 03:12:06;;;;;;;8.25;4.60;;;;;;;8.91;100.00;100640.19;5094118;28;20028;-84
2022/11/15 03:15:06;;;;;;;6.47;3.90;;;;;;;8.93;100.00;100641.03;5094427;28;20028;-85
2022/11/15 03:18:19;;;;;;;7.63;4.25;;;;;;;8.98;100.00;100640.97;5094340;28;20396;-85
2022/11/15 03:20:48;;;;;;;7.85;4.68;;;;;;;8.99;100.00;100635.81;5080637;28;20064;-84
2022/11/15 03:23:13;;;;;;;7.90;4.13;;;;;;;9.02;100.00;100645.25;5094016;28;20020;-84
2022/11/15 03:25:46;;;;;;;7.10;4.00;;;;;;;9.02;100.00;100638.34;5093588;28;20028;-84
2022/11/15 03:28:26;;;;;;;6.97;3.65;;;;;;;9.04;100.00;100641.75;5093459;28;20072;-84
2022/11/15 03:30:53;;;;;;;8.82;4.43;;;;;;;9.07;100.00;100639.16;5094155;28;20032;-85
2022/11/15 03:33:21;;;;;;;;;;;;;;;9.08;100.00;100640.88;5093578;28;20024;-84
2022/11/15 03:35:48;;;;;;;11.18;6.03;;;;;;;9.12;100.00;100639.94;5093609;28;20371;-84
2022/11/15 03:38:25;;;;;;;11.32;5.60;;;;;;;9.14;100.00;100637.34;5094007;28;20047;-84
2022/11/15 03:41:17;;;;;;;9.00;4.82;;;;;;;9.17;100.00;100644.19;5093317;28;20024;-84
2022/11/15 03:43:54;;;;;;;7.30;4.18;;;;;;;9.18;100.00;100648.50;5093740;28;20028;-84
2022/11/15 03:46:26;;;;;;;7.47;4.47;;;;;;;9.19;100.00;100648.47;5093502;28;20367;-84
2022/11/15 03:48:57;;;;;;;7.30;3.90;;;;;;;9.18;100.00;100641.59;5093539;28;20224;-84
2022/11/15 03:51:23;;;;;;;8.43;4.22;;;;;;;9.21;100.00;100645.88;5093523;28;20028;-84
2022/11/15 03:53:48;;;;;;;5.93;3.70;;;;;;;9.22;100.00;100638.09;5092830;28;20081;-84
2022/11/15 03:56:13;;;;;;;4.70;3.20;;;;;;;9.25;100.00;100639.78;5092872;28;20036;-84
2022/11/15 03:58:38;;;;;;;5.57;3.47;;;;;;;9.26;100.00;100638.91;5093882;28;20024;-84
2022/11/15 04:01:04;;;;;;;5.45;3.38;;;;;;;9.29;100.00;100643.22;5092913;28;20028;-84
2022/11/15 04:03:29;;;;;;;5.00;3.30;;;;;;;9.30;100.00;100645.75;5092992;28;20028;-84
2022/11/15 04:05:54;;;;;;;7.87;4.20;;;;;;;9.30;100.00;100645.75;5093013;28;20031;-83
2022/11/15 04:08:19;;;;;;;9.20;4.68;;;;;;;9.34;100.00;100637.09;5092921;28;20035;-83
2022/11/15 04:10:45;;;;;;;10.03;4.83;;;;;;;9.37;100.00;100638.78;5093196;28;20031;-83
2022/11/15 04:13:10;;;;;;;10.77;5.17;;;;;;;9.39;100.00;100644.78;5093671;28;20165;-83
2022/11/15 04:15:35;;;;;;;7.33;4.40;;;;;;;9.39;100.00;100635.28;5093042;28;20024;-83
2022/11/15 04:18:00;;;;;;;9.47;4.60;;;;;;;9.40;100.00;100634.41;5093395;28;20107;-83
2022/11/15 04:26:08;;;;;;;10.18;5.25;;;;;;;9.45;100.00;100636.94;5093580;28;20027;-82
2022/11/15 04:28:33;;;;;;;8.07;4.60;;;;;;;9.46;100.00;100635.22;5092693;28;20115;-82
2022/11/15 04:30:59;;;;;;;9.97;4.93;;;;;;;9.46;100.00;100638.63;5092833;28;20174;-83
2022/11/15 04:33:30;;;;;;;8.53;4.40;;;;;;;9.47;100.00;100637.75;5092196;28;20103;-82
2022/11/15 04:38:39;;;;;;;6.43;4.00;;;;;;;9.48;100.00;100636.00;5093412;28;20088;-82
2022/11/15 04:41:05;;;;;;;5.67;3.50;;;;;;;9.48;100.00;100644.66;5092510;28;20429;-82
2022/11/15 04:43:30;;;;;;;9.00;4.40;;;;;;;9.50;100.00;100644.63;5092425;28;20024;-82
2022/11/15 04:45:55;;;;;;;8.40;4.13;;;;;;;9.50;100.00;100644.63;5092721;28;20126;-83
2022/11/15 04:48:21;;;;;;;5.70;3.53;;;;;;;9.50;100.00;100639.44;5092583;28;20376;-83
2022/11/15 04:50:49;;;;;;;7.00;3.93;;;;;;;9.51;100.00;100646.34;5092602;28;20080;-82
2022/11/15 04:53:15;;;;;;;11.80;5.43;;;;;;;9.51;100.00;100641.16;5092539;28;20051;-82
2022/11/15 04:55:44;;;;;;;8.73;4.83;;;;;;;9.53;100.00;100642.00;5147955;22;20512;-83
2022/11/15 04:58:09;;;;;;;8.70;4.40;;;;;;;9.54;100.00;100641.13;5092165;28;20392;-82
2022/11/15 05:00:35;;;;;;;9.53;5.33;;;;;;;9.53;100.00;100635.06;5092702;28;20024;-82
2022/11/15 05:05:44;;;;;;;7.80;4.50;;;;;;;9.57;100.00;100638.47;5093191;28;20071;-82
2022/11/15 05:08:09;;;;;;;8.83;4.53;;;;;;;9.55;100.00;100633.31;5092677;28;20123;-82
2022/11/15 05:10:34;;;;;;;7.30;4.30;;;;;;;9.57;100.00;100636.75;5092492;28;20039;-82
2022/11/15 05:12:59;;;;;;;8.03;4.70;;;;;;;9.56;100.00;100637.63;5092553;28;20115;-83
2022/11/15 05:15:25;;;;;;;7.60;4.17;;;;;;;9.57;100.00;100636.75;5092731;28;20084;-83
2022/11/15 05:17:50;;;;;;;8.30;4.17;;;;;;;9.57;100.00;100639.34;5095702;28;20380;-82
2022/11/15 05:20:15;;;;;;;10.83;5.43;;;;;;;9.59;100.00;100639.31;5095824;28;20476;-82
2022/11/15 05:22:40;;;;;;;9.47;4.40;;;;;;;9.60;100.00;100635.00;5096358;28;20085;-83
2022/11/15 05:25:07;;;;;;;7.70;4.30;;;;;;;9.61;100.00;100626.34;5095933;28;20027;-82
2022/11/15 05:27:33;;;;;;;6.60;4.00;;;;;;;9.62;100.00;100628.06;5096327;28;20379;-82
2022/11/15 05:29:59;;;;;;;6.53;3.70;;;;;;;9.62;100.00;100626.31;5096203;28;20553;-83
2022/11/15 05:32:24;;;;;;;5.93;3.50;;;;;;;9.62;100.00;100628.91;5095799;28;20024;-83
2022/11/15 05:34:49;;;;;;;7.80;3.80;;;;;;;9.62;100.00;100628.91;5095815;28;20107;-82
2022/11/15 05:37:16;;;;;;;6.87;3.90;;;;;;;9.63;100.00;100625.44;5096183;28;20471;-83
2022/11/15 05:39:41;;;;;;;7.20;3.88;;;;;;;9.65;100.00;100633.19;5095832;28;20031;-83
2022/11/15 05:42:11;;;;;;;5.00;3.30;;;;;;;9.65;100.00;100625.41;5095867;28;20054;-83
2022/11/15 05:44:38;;;;;;;4.32;3.10;;;;;;;9.64;100.00;100616.78;5096191;28;20052;-83
2022/11/15 05:47:07;;;;;;;7.97;4.25;;;;;;;9.66;100.00;100614.16;5095487;28;20102;-83
2022/11/15 05:49:36;;;;;;;7.50;4.28;;;;;;;9.66;100.00;100616.75;5096057;28;20032;-83
2022/11/15 05:52:05;;;;;;;7.53;4.00;;;;;;;9.66;100.00;100615.03;5095748;28;20028;-82
2022/11/15 05:54:31;;;;;;;6.00;3.72;;;;;;;9.65;100.00;100620.22;5095588;28;20071;-82
2022/11/15 05:56:57;;;;;;;6.50;3.65;;;;;;;9.66;100.00;100621.94;5095384;28;20480;-83
2022/11/15 05:59:22;;;;;;;4.53;3.30;;;;;;;9.66;100.00;100632.31;5080771;28;20028;-84
2022/11/15 06:01:51;;;;;;;5.37;3.40;;;;;;;9.67;100.00;100634.03;5090137;28;20035;-85
2022/11/15 06:04:16;;;;;;;4.82;3.03;;;;;;;9.66;100.00;100642.66;5095661;28;20488;-83
2022/11/15 06:06:41;;;;;;;4.03;2.60;;;;;;;9.65;100.00;100641.84;5095476;28;20024;-83
2022/11/15 06:09:06;;;;;;;6.70;3.80;;;;;;;9.65;100.00;100641.84;5095283;28;20415;-84
2022/11/15 06:11:32;;;;;;;9.57;4.50;;;;;;;9.65;100.00;100635.78;5095505;28;20031;-83
2022/11/15 06:13:57;;;;;;;7.67;4.40;;;;;;;9.65;100.00;100633.19;5093829;28;20047;-82
2022/11/15 06:16:22;;;;;;;6.07;3.90;;;;;;;9.66;100.00;100643.53;5085815;28;20523;-84
2022/11/15 06:18:48;;;;;;;10.67;5.40;;;;;;;9.68;100.00;100640.91;5075095;28;20150;-83
2022/11/15 06:21:13;;;;;;;12.63;5.80;;;;;;;9.67;100.00;100640.06;5074182;28;20035;-83
2022/11/15 06:23:38;;;;;;;11.27;5.80;;;;;;;9.69;100.00;100648.66;5075148;28;20028;-83
2022/11/15 06:26:04;;;;;;;15.23;7.20;;;;;;;9.70;100.00;100646.94;5074918;28;20021;-83
2022/11/15 06:28:33;;;;;;;14.33;7.33;;;;;;;9.78;100.00;100652.00;5073310;28;20025;-85
2022/11/15 06:31:07;;;;;;;13.73;6.40;;;;;;;9.76;100.00;100656.38;5074760;28;20451;-84
2022/11/15 06:33:32;;;;;;;13.25;6.07;;;;;;;9.76;100.00;100648.59;5075037;28;20025;-84
2022/11/15 06:36:02;;;;;;;15.77;7.50;;;;;;;9.73;100.00;100650.34;5074245;28;20423;-84
2022/11/15 06:38:27;;;;;;;12.85;6.22;;;;;;;9.76;100.00;100662.38;5074334;28;20031;-84
2022/11/15 06:40:53;;;;;;;10.77;5.57;;;;;;;9.76;100.00;100654.63;5074989;28;20362;-85
2022/11/15 06:43:18;;;;;;;8.93;5.10;;;;;;;9.76;100.00;100656.38;5074456;28;20518;-83
2022/11/15 06:45:43;;;;;;;9.37;4.87;;;;;;;9.75;100.00;100658.09;5074761;28;20024;-84
2022/11/15 06:48:08;;;;;;;6.93;3.93;;;;;;;9.74;100.00;100657.25;5074323;28;20021;-83
2022/11/15 06:50:34;;;;;;;7.30;4.27;;;;;;;9.73;100.00;100668.47;5074270;28;20119;-84
2022/11/15 06:53:05;;;;;;;7.37;4.10;;;;;;;9.73;100.00;100668.47;5075104;28;20032;-83
2022/11/15 06:55:30;;;;;;;7.03;3.92;;;;;;;9.72;100.00;100658.16;5080240;28;20044;-85
2022/11/15 06:57:56;;;;;;;6.37;3.90;;;;;;;9.73;100.00;100676.25;5094164;28;20020;-84
2022/11/15 07:00:25;;;;;;;8.80;4.63;;;;;;;9.72;100.00;100674.53;5094024;28;20016;-84
2022/11/15 07:03:00;;;;;;;8.65;4.22;;;;;;;9.69;100.00;100668.56;5093852;28;20031;-84
2022/11/15 07:05:26;;;;;;;11.75;5.45;;;;;;;9.68;100.00;100667.69;5093794;28;20032;-84
2022/11/15 07:07:53;;;;;;;10.47;4.83;;;;;;;9.67;100.00;100673.75;5093777;28;20028;-84
2022/11/15 07:10:18;;;;;;;9.45;4.53;;;;;;;9.67;100.00;100678.94;5093457;28;20302;-84
2022/11/15 07:12:47;;;;;;;8.87;4.60;;;;;;;9.67;100.00;100683.25;5093864;28;20032;-84
2022/11/15 07:15:12;;;;;;;8.65;4.30;;;;;;;9.64;100.00;100676.38;5093899;28;20028;-84
2022/11/15 07:17:38;;;;;;;7.27;4.13;;;;;;;9.65;100.00;100683.28;5093215;28;20046;-85
2022/11/15 07:20:03;;;;;;;7.20;4.40;;;;;;;9.64;100.00;100681.56;5093986;28;20056;-84
2022/11/15 07:22:29;;;;;;;7.27;4.20;;;;;;;9.65;100.00;100687.59;5094304;28;20046;-84
2022/11/15 07:24:54;;;;;;;8.70;4.10;;;;;;;9.64;100.00;100684.16;5093304;28;20024;-85
2022/11/15 07:27:19;;;;;;;6.23;3.87;;;;;;;9.64;100.00;100691.94;5093678;28;20023;-85
2022/11/15 07:29:45;;;;;;;5.80;3.57;;;;;;;9.63;100.00;100687.63;5094129;28;20032;-84
2022/11/15 07:32:10;;;;;;;9.97;4.43;;;;;;;9.63;100.00;100685.03;5093068;28;20031;-84
2022/11/15 07:34:35;;;;;;;8.37;4.47;;;;;;;9.64;100.00;100686.75;5093284;28;20061;-84
2022/11/15 07:37:01;;;;;;;7.37;4.27;;;;;;;9.64;100.00;100686.75;5093860;28;20032;-84
2022/11/15 07:39:26;;;;;;;8.73;4.67;;;;;;;9.65;100.00;100685.00;5092275;28;20016;-84
2022/11/15 07:42:52;;;;;;;5.47;3.50;;;;;;;9.65;100.00;100680.69;5093956;28;20093;-84
2022/11/15 07:44:36;;;;;;;6.30;3.80;;;;;;;9.67;100.00;100678.06;5093406;28;20028;-84
2022/11/15 07:47:02;;;;;;;6.83;3.83;;;;;;;9.66;100.00;100677.22;5092997;28;20566;-84
2022/11/15 07:49:27;;;;;;;6.40;3.80;;;;;;;9.65;100.00;100664.28;5093905;28;20382;-85
2022/11/15 07:51:52;;;;;;;5.80;3.73;;;;;;;9.69;100.00;100668.56;5093959;28;20035;-85
2022/11/15 07:54:17;;;;;;;4.87;3.30;;;;;;;9.70;100.00;100675.44;5092345;28;20506;-84
2022/11/15 07:56:43;;;;;;;4.10;2.90;;;;;;;9.70;100.00;100668.50;5093568;28;20055;-85
2022/11/15 07:59:08;;;;;;;4.53;3.00;;;;;;;9.71;100.00;100671.97;5092835;28;20031;-84
2022/11/15 08:01:33;;;;;;;7.40;3.70;;;;;;;9.74;100.00;100677.09;5092803;28;20024;-85
2022/11/15 08:03:58;;;;;;;7.17;4.27;;;;;;;9.76;100.00;100672.75;5093081;28;20031;-85
2022/11/15 08:06:24;;;;;;;7.23;3.90;;;;;;;9.79;100.00;100680.50;5092983;28;20105;-84
2022/11/15 08:08:49;;;;;;;6.03;3.83;;;;;;;9.80;100.00;100677.03;5093069;28;20110;-84
2022/11/15 08:11:14;;;;;;;7.77;4.00;;;;;;;9.80;100.00;100687.41;5093245;28;20031;-85
2022/11/15 08:13:40;;;;;;;7.13;3.93;;;;;;;9.82;100.00;100689.94;5092840;28;20016;-85
2022/11/15 08:16:05;;;;;;;6.80;3.90;;;;;;;9.84;100.00;100696.84;5093139;28;20023;-85
2022/11/15 08:18:31;;;;;;;7.47;3.87;;;;;;;9.85;100.00;100695.09;5092781;28;20119;-85
2022/11/15 08:21:02;;;;;;;12.53;5.63;;;;;;;9.86;100.00;100692.47;5089933;28;20202;-85
2022/11/15 08:23:27;;;;;;;12.02;5.93;;;;;;;9.84;100.00;100689.06;5073146;28;20139;-85
2022/11/15 08:25:59;;;;;;;10.10;5.03;;;;;;;9.85;100.00;100688.16;5072906;28;20533;-86
2022/11/15 08:28:24;;;;;;;9.43;5.20;;;;;;;9.87;100.00;100685.56;5072311;28;20380;-85
2022/11/15 08:30:49;;;;;;;10.60;5.40;;;;;;;9.84;100.00;100688.19;5072472;28;20029;-85
2022/11/15 08:33:15;;;;;;;9.57;5.00;;;;;;;9.85;100.00;100688.16;5090645;28;20042;-85
2022/11/15 08:35:42;;;;;;;8.77;4.43;;;;;;;9.88;100.00;100687.28;5092225;28;20028;-85
2022/11/15 08:38:07;;;;;;;10.02;5.20;;;;;;;9.87;100.00;100682.97;5092857;28;20077;-85
2022/11/15 08:40:33;;;;;;;8.87;4.63;;;;;;;9.88;100.00;100676.91;5092796;28;20103;-85
2022/11/15 08:43:02;;;;;;;8.43;4.70;;;;;;;9.89;100.00;100676.88;5091437;28;20469;-84
2022/11/15 08:45:27;;;;;;;9.73;4.80;;;;;;;9.89;100.00;100671.69;5093018;28;20099;-85
2022/11/15 08:47:52;;;;;;;7.97;4.70;;;;;;;9.93;100.00;100661.28;5092563;28;20055;-84
2022/11/15 08:50:18;;;;;;;12.73;6.00;;;;;;;9.94;100.00;100666.44;5092095;28;20028;-84
2022/11/15 08:52:43;;;;;;;9.80;5.03;;;;;;;9.99;100.00;100656.00;5096280;28;20027;-84
2022/11/15 08:55:08;;;;;;;9.90;5.23;;;;;;;10.03;100.00;100658.50;5096790;28;20469;-85
2022/11/15 08:57:33;;;;;;;7.90;4.37;;;;;;;10.08;100.00;100661.03;5096037;28;20024;-85
2022/11/15 08:59:59;;;;;;;7.30;4.07;;;;;;;10.12;100.00;100657.50;5097056;28;20036;-85
2022/11/15 09:02:24;;;;;;;5.40;3.70;;;;;;;10.14;100.00;100660.06;5095805;28;20071;-84
2022/11/15 09:04:49;;;;;;;8.20;4.37;;;;;;;10.20;100.00;100657.41;5096607;28;20085;-85
2022/11/15 09:07:15;;;;;;;9.70;5.10;;;;;;;10.29;100.00;100646.84;5096642;28;20020;-85
2022/11/15 09:09:40;;;;;;;8.10;4.60;;;;;;;10.39;100.00;100642.41;5095969;28;20024;-86
2022/11/15 09:12:08;;;;;;;7.87;4.80;;;;;;;10.51;100.00;100638.72;5094516;28;20036;-86
2022/11/15 09:14:34;;;;;;;8.45;4.90;;;;;;;10.56;100.00;100633.44;5096608;28;20050;-86
2022/11/15 09:17:02;;;;;;;6.80;4.20;;;;;;;10.63;100.00;100622.94;5096459;28;20024;-85
2022/11/15 09:19:31;;;;;;;9.32;4.55;;;;;;;10.62;100.00;100628.16;5095740;28;20447;-85
2022/11/15 09:21:56;;;;;;;6.35;4.00;;;;;;;10.60;100.00;100629.91;5096861;28;20031;-85
2022/11/15 09:24:27;;;;;;;6.20;3.87;;;;;;;10.58;100.00;100619.56;5095859;28;20020;-84
2022/11/15 09:26:56;;;;;;;8.38;4.40;;;;;;;10.62;98.85;100620.38;5096132;28;20388;-85
2022/11/15 09:29:21;;;;;;;6.30;3.70;;;;;;;10.62;99.46;100610.00;5095980;28;20834;-85
2022/11/15 09:31:46;;;;;;;6.53;3.83;;;;;;;10.61;98.60;100618.66;5095429;28;20056;-85
2022/11/15 09:34:29;;;;;;;6.20;3.57;;;;;;;10.63;98.94;100622.09;5096262;28;20032;-85
2022/11/15 09:36:54;;;;;;;4.90;3.20;;;;;;;10.66;99.00;100617.69;5096467;28;20491;-85
2022/11/15 09:39:20;;;;;;;5.00;3.13;;;;;;;10.77;98.65;100616.63;5095837;28;20024;-86
2022/11/15 09:42:22;;;;;;;5.03;3.17;;;;;;;10.84;98.08;100625.16;5097134;28;20024;-85
2022/11/15 09:45:20;;;;;;;5.25;3.13;;;;;;;10.87;97.47;100619.88;5096071;28;20024;-85
2022/11/15 09:48:10;;;;;;;5.00;3.33;;;;;;;10.93;96.27;100619.75;5095965;28;20122;-85
2022/11/15 09:50:46;;;;;;;4.40;2.75;;;;;;;11.05;97.81;100613.44;5095623;28;20123;-84
2022/11/15 09:53:17;;;;;;;5.65;3.03;;;;;;;11.13;95.10;100617.59;5095381;28;20028;-85
2022/11/15 09:56:00;;;;;;;5.55;2.88;;;;;;;11.20;94.91;100613.13;5088951;28;20114;-85
2022/11/15 09:58:46;;;;;;;4.97;2.72;;;;;;;11.27;93.58;100604.31;5075445;28;20497;-85
2022/11/15 10:01:15;;;;;;;;;;;;;;;11.31;92.35;100605.13;5075370;28;20032;-84
2022/11/15 10:03:41;;;;;;;3.20;2.25;;;;;;;11.37;94.44;100610.16;5074848;28;19912;-84
2022/11/15 10:06:24;;;;;;;4.00;2.22;;;;;;;11.46;91.12;100608.22;5074551;28;20031;-85
2022/11/15 10:09:06;;;;;;;3.25;2.30;;;;;;;11.51;91.50;100609.84;5074948;28;20108;-85
2022/11/15 10:11:36;;;;;;;3.53;2.15;;;;;;;11.55;91.22;100605.41;5075527;28;20146;-85
2022/11/15 10:14:08;;;;;;;4.43;1.95;;;;;;;11.61;85.41;100601.81;5074847;28;20417;-84
2022/11/15 10:16:53;;;;;;;2.63;1.92;;;;;;;11.58;89.20;100597.56;5075522;28;20013;-85
2022/11/15 10:19:55;;;;;;;4.72;2.00;;;;;;;11.59;88.24;100594.94;5075189;28;20090;-85
2022/11/15 10:22:41;;;;;;;3.08;1.85;;;;;;;11.65;84.97;100595.69;5074768;28;20039;-85
2022/11/15 10:25:09;;;;;;;2.88;2.00;;;;;;;11.67;87.42;100596.50;5074939;28;20028;-85
2022/11/15 10:27:35;;;;;;;1.60;1.50;;;;;;;11.60;86.69;100600.97;5074685;28;20103;-85
2022/11/15 10:30:00;;;;;;;2.28;1.83;;;;;;;11.51;85.76;100596.00;5074184;28;20488;-85
2022/11/15 10:32:26;;;;;;;2.97;1.77;;;;;;;11.41;84.15;100587.56;5075013;28;20029;-85
2022/11/15 10:34:52;;;;;;;2.10;1.40;;;;;;;11.33;83.66;100584.28;5074391;28;20028;-85
2022/11/15 10:37:31;;;;;;;3.70;1.80;;;;;;;11.25;82.19;100577.53;5074775;28;20016;-85
2022/11/15 10:40:14;;;;;;;3.58;1.70;;;;;;;11.21;83.78;100570.69;5074759;28;20044;-85
2022/11/15 10:42:40;;;;;;;6.10;1.70;;;;;;;11.19;78.79;100569.00;5074264;28;20033;-84
2022/11/15 10:45:27;;;;;;;2.87;1.60;;;;;;;11.23;80.47;100560.25;5074407;28;20020;-86
2022/11/15 10:47:53;;;;;;;2.92;1.60;;;;;;;11.25;81.14;100561.06;5073387;28;20017;-84
2022/11/15 10:50:31;;;;;;;2.13;1.40;;;;;;;11.32;82.50;100554.00;5075093;28;20043;-85
2022/11/15 10:52:58;;;;;;;3.60;1.70;;;;;;;11.38;82.77;100559.03;5073641;28;20016;-85
2022/11/15 10:55:30;;;;;;;2.00;1.45;;;;;;;11.46;83.23;100557.13;5077802;28;20048;-84
2022/11/15 10:58:03;;;;;;;3.28;1.65;;;;;;;11.54;81.33;100557.81;5053938;28;20036;-86
2022/11/15 11:00:41;;;;;;;2.05;1.42;;;;;;;11.61;80.59;100549.84;5079143;28;20021;-85
2022/11/15 11:03:35;;;;;;;4.32;1.60;;;;;;;11.64;80.58;100549.78;5073252;28;20028;-85
2022/11/15 11:06:16;;;;;;;3.65;1.42;;;;;;;11.73;80.94;100545.22;5074190;28;20379;-86
2022/11/15 11:08:59;;;;;;;4.07;1.70;;;;;;;11.83;80.17;100545.81;5054282;28;20013;-85
2022/11/15 11:11:43;;;;;;;5.15;1.63;;;;;;;11.92;82.30;100543.91;5053552;28;20032;-85
2022/11/15 11:14:13;;;;;;;2.78;1.50;;;;;;;12.01;80.31;100534.13;5053254;28;20037;-85
2022/11/15 11:16:44;;;;;;;16.90;3.42;;;;;;;12.07;79.76;100527.91;5053427;28;20025;-86
2022/11/15 11:19:38;;;;;;;9.95;2.38;;;;;;;12.16;78.81;100517.25;5064560;28;20496;-85
2022/11/15 11:22:22;;;;;;;4.68;1.90;;;;;;;12.19;77.16;100517.16;5072649;28;20033;-85
2022/11/15 11:24:50;;;;;;;3.35;1.60;;;;;;;12.19;77.35;100516.34;5072899;28;20108;-86
2022/11/15 11:27:23;;;;;;;2.95;1.75;;;;;;;12.18;78.28;100507.66;5073041;28;20024;-84
2022/11/15 11:30:16;;;;;;;3.53;1.65;;;;;;;12.19;77.93;100501.56;5072911;28;20457;-85
2022/11/15 11:33:00;;;;;;;2.78;1.60;;;;;;;12.05;77.43;100490.66;5071958;28;20034;-85
2022/11/15 11:35:34;;;;;;;3.05;1.80;;;;;;;12.02;78.23;100481.22;5073012;28;20039;-85
2022/11/15 11:38:18;;;;;;;2.53;1.48;;;;;;;11.98;79.59;100478.75;5072552;28;20032;-85
2022/11/15 11:41:00;;;;;;;2.70;1.45;;;;;;;11.97;79.11;100480.47;5073376;28;20120;-85
2022/11/15 11:44:16;;;;;;;3.08;1.60;;;;;;;12.00;76.39;100476.97;5073765;28;20023;-86
2022/11/15 11:46:44;;;;;;;1.65;1.13;;;;;;;12.00;79.39;100458.75;5039440;28;20071;-85
2022/11/15 11:49:15;;;;;;;2.28;1.40;;;;;;;12.04;79.32;100463.81;5073353;28;20022;-85
2022/11/15 11:51:47;;;;;;;1.17;1.08;;;;;;;12.12;79.90;100458.41;5072656;28;20481;-85
2022/11/15 11:54:36;;;;;;;2.83;1.40;;;;;;;12.19;78.90;100457.34;5073471;28;20029;-85